createdAt,value
2019-03-31T00:01:12.142Z,11.33
2019-03-31T00:04:02.066Z,9.83
2019-03-31T00:06:51.732Z,10.53
2019-03-31T00:09:42.012Z,11.20
2019-03-31T00:12:13.068Z,10.50
2019-03-31T00:15:03.516Z,11.23
2019-03-31T00:17:34.519Z,10.40
2019-03-31T00:20:06.047Z,10.37
2019-03-31T00:22:55.842Z,9.97
2019-03-31T00:25:27.325Z,9.87
2019-03-31T00:27:58.649Z,9.60
2019-03-31T00:30:48.535Z,9.87
2019-03-31T00:33:19.636Z,9.97
2019-03-31T00:35:50.789Z,10.50
2019-03-31T00:38:22.612Z,10.97
2019-03-31T00:40:55.097Z,11.27
2019-03-31T00:43:26.826Z,11.23
2019-03-31T00:45:58.001Z,11.07
2019-03-31T00:48:31.375Z,11.23
2019-03-31T00:51:03.378Z,11.10
2019-03-31T00:53:53.635Z,11.87
2019-03-31T00:56:43.716Z,11.10
2019-03-31T00:59:15.344Z,11.23
2019-03-31T01:02:11.158Z,11.73
2019-03-31T01:05:01.313Z,11.00
2019-03-31T01:07:51.357Z,10.90
2019-03-31T01:10:22.773Z,10.47
2019-03-31T01:12:54.223Z,10.33
2019-03-31T01:15:45.527Z,11.23
2019-03-31T01:18:16.900Z,11.40
2019-03-31T01:20:49.005Z,11.67
2019-03-31T01:23:39.070Z,11.93
2019-03-31T01:26:10.295Z,11.50
2019-03-31T01:28:41.864Z,11.70
2019-03-31T01:31:13.414Z,10.80
2019-03-31T01:34:03.290Z,11.30
2019-03-31T01:36:34.443Z,10.50
2019-03-31T01:39:07.868Z,11.23
2019-03-31T01:41:57.624Z,10.27
2019-03-31T01:44:47.300Z,10.87
2019-03-31T01:47:37.226Z,10.40
2019-03-31T01:50:11.684Z,10.20
2019-03-31T01:52:43.195Z,10.63
2019-03-31T01:55:14.224Z,11.33
2019-03-31T01:58:33.463Z,11.33
2019-03-31T02:00:47.891Z,10.33
2019-03-31T02:03:38.126Z,9.43
2019-03-31T02:06:09.209Z,10.83
2019-03-31T02:08:59.199Z,10.00
2019-03-31T02:11:30.327Z,10.17
2019-03-31T02:14:19.967Z,10.47
2019-03-31T02:16:51.083Z,9.80
2019-03-31T02:19:40.758Z,9.30
2019-03-31T02:22:11.809Z,10.23
2019-03-31T02:24:43.949Z,10.17
2019-03-31T02:27:33.924Z,11.83
2019-03-31T02:30:05.237Z,10.93
2019-03-31T02:32:37.211Z,10.43
2019-03-31T02:35:08.780Z,9.90
2019-03-31T02:37:40.584Z,11.17
2019-03-31T02:40:30.410Z,10.50
2019-03-31T02:43:20.397Z,11.60
2019-03-31T02:45:51.410Z,11.33
2019-03-31T02:48:42.125Z,10.63
2019-03-31T02:51:34.154Z,10.90
2019-03-31T02:54:23.999Z,11.03
2019-03-31T02:57:14.039Z,11.37
2019-03-31T03:00:03.784Z,11.60
2019-03-31T03:02:54.110Z,11.23
2019-03-31T03:05:48.362Z,10.87
2019-03-31T03:08:24.237Z,11.63
2019-03-31T03:11:18.119Z,10.90
2019-03-31T03:13:52.670Z,10.90
2019-03-31T03:16:42.865Z,10.83
2019-03-31T03:19:32.882Z,11.00
2019-03-31T03:22:43.123Z,11.73
2019-03-31T03:25:24.478Z,11.20
2019-03-31T03:27:56.603Z,12.43
2019-03-31T03:33:23.572Z,11.47
2019-03-31T03:36:14.579Z,10.63
2019-03-31T03:39:24.890Z,10.90
2019-03-31T03:42:14.934Z,11.20
2019-03-31T03:45:04.631Z,11.57
2019-03-31T03:47:55.315Z,11.23
2019-03-31T03:50:26.472Z,11.07
2019-03-31T03:52:57.777Z,11.27
2019-03-31T03:55:29.716Z,10.93
2019-03-31T03:58:01.739Z,11.33
2019-03-31T04:00:33.250Z,12.13
2019-03-31T04:03:04.728Z,11.67
2019-03-31T04:05:35.715Z,10.97
2019-03-31T04:08:06.664Z,11.50
2019-03-31T04:10:55.581Z,10.97
2019-03-31T04:13:26.859Z,11.53
2019-03-31T04:16:16.894Z,11.20
2019-03-31T04:19:06.598Z,11.53
2019-03-31T04:21:56.282Z,11.43
2019-03-31T04:24:37.973Z,12.87
2019-03-31T04:27:09.494Z,11.93
2019-03-31T04:29:40.532Z,12.67
2019-03-31T04:32:30.577Z,12.50
2019-03-31T04:35:01.735Z,12.33
2019-03-31T04:37:32.744Z,12.70
2019-03-31T04:40:23.099Z,13.63
2019-03-31T04:42:54.094Z,12.67
2019-03-31T04:45:47.556Z,12.40
2019-03-31T04:48:37.618Z,12.53
2019-03-31T04:51:09.249Z,12.20
2019-03-31T04:53:53.451Z,12.63
2019-03-31T04:56:32.462Z,11.93
2019-03-31T04:59:22.387Z,12.07
2019-03-31T05:02:12.226Z,13.43
2019-03-31T05:05:01.945Z,13.03
2019-03-31T05:07:33.103Z,12.73
2019-03-31T05:10:23.816Z,12.70
2019-03-31T05:13:13.494Z,13.07
2019-03-31T05:18:53.401Z,13.97
2019-03-31T05:21:24.867Z,12.90
2019-03-31T05:23:57.261Z,13.20
2019-03-31T05:29:20.989Z,12.70
2019-03-31T05:32:11.154Z,12.97
2019-03-31T05:35:00.840Z,12.50
2019-03-31T05:37:51.265Z,12.80
2019-03-31T05:40:37.784Z,13.70
2019-03-31T05:43:10.245Z,13.87
2019-03-31T05:45:44.151Z,12.93
2019-03-31T05:48:16.008Z,13.37
2019-03-31T05:51:06.063Z,12.67
2019-03-31T05:54:15.270Z,12.13
2019-03-31T05:56:48.301Z,13.17
2019-03-31T05:59:20.363Z,13.50
2019-03-31T06:01:51.749Z,13.47
2019-03-31T06:04:32.966Z,13.97
2019-03-31T06:07:14.975Z,12.50
2019-03-31T06:09:45.998Z,12.90
2019-03-31T06:12:36.182Z,13.23
2019-03-31T06:15:25.980Z,13.37
2019-03-31T06:18:16.618Z,12.90
2019-03-31T06:21:06.258Z,14.40
2019-03-31T06:23:37.494Z,12.17
2019-03-31T06:26:19.658Z,12.20
2019-03-31T06:28:51.059Z,12.03
2019-03-31T06:31:40.709Z,13.67
2019-03-31T06:34:11.897Z,12.93
2019-03-31T06:37:01.895Z,13.80
2019-03-31T06:39:34.375Z,12.73
2019-03-31T06:42:24.559Z,13.13
2019-03-31T06:45:14.524Z,13.07
2019-03-31T06:48:04.247Z,12.47
2019-03-31T06:50:35.264Z,13.50
2019-03-31T06:53:24.961Z,12.80
2019-03-31T06:55:55.994Z,12.47
2019-03-31T06:58:45.947Z,12.03
2019-03-31T07:01:16.929Z,11.83
2019-03-31T07:03:47.994Z,12.10
2019-03-31T07:06:19.095Z,13.40
2019-03-31T07:09:08.769Z,13.47
2019-03-31T07:11:58.468Z,12.57
2019-03-31T07:14:29.545Z,11.73
2019-03-31T07:17:00.915Z,12.87
2019-03-31T07:19:31.976Z,11.73
2019-03-31T07:22:02.993Z,13.40
2019-03-31T07:24:52.928Z,13.07
2019-03-31T07:27:23.959Z,12.90
2019-03-31T07:30:33.981Z,13.17
2019-03-31T07:33:24.073Z,13.00
2019-03-31T07:35:55.100Z,13.77
2019-03-31T07:38:45.066Z,12.83
2019-03-31T07:41:16.154Z,13.20
2019-03-31T07:44:06.171Z,13.63
2019-03-31T07:46:55.950Z,13.10
2019-03-31T07:50:03.140Z,12.50
2019-03-31T07:52:40.530Z,13.10
2019-03-31T08:01:01.919Z,12.70
2019-03-31T08:03:43.865Z,12.80
2019-03-31T08:06:25.807Z,13.60
2019-03-31T08:08:56.940Z,13.17
2019-03-31T08:11:28.061Z,12.93
2019-03-31T08:14:18.259Z,13.40
2019-03-31T08:17:08.069Z,13.30
2019-03-31T08:19:39.516Z,12.07
2019-03-31T08:22:29.383Z,13.07
2019-03-31T08:25:19.591Z,12.40
2019-03-31T08:28:01.115Z,13.27
2019-03-31T08:30:32.308Z,13.80
2019-03-31T08:33:14.271Z,13.73
2019-03-31T08:35:55.164Z,13.63
2019-03-31T08:38:45.367Z,12.63
2019-03-31T08:44:25.468Z,13.03
2019-03-31T08:47:15.605Z,12.80
2019-03-31T08:49:46.731Z,12.53
2019-03-31T08:52:17.915Z,12.23
2019-03-31T08:54:48.991Z,13.67
2019-03-31T08:57:39.204Z,12.23
2019-03-31T09:03:32.920Z,12.23
2019-03-31T09:06:04.033Z,13.13
2019-03-31T09:08:54.088Z,12.50
2019-03-31T09:11:43.935Z,11.83
2019-03-31T09:14:33.964Z,12.83
2019-03-31T09:17:05.458Z,12.70
2019-03-31T09:23:07.710Z,13.93
2019-03-31T09:25:38.719Z,12.63
2019-03-31T09:28:12.035Z,13.30
2019-03-31T09:31:02.438Z,13.40
2019-03-31T09:33:33.610Z,12.90
2019-03-31T09:36:23.965Z,13.20
2019-03-31T09:38:57.280Z,12.50
2019-03-31T09:41:28.275Z,12.90
2019-03-31T09:46:57.409Z,11.70
2019-03-31T09:49:47.444Z,12.57
2019-03-31T09:52:37.336Z,12.53
2019-03-31T09:57:46.882Z,13.27
2019-03-31T10:00:54.431Z,14.10
2019-03-31T10:03:27.104Z,14.03
2019-03-31T10:06:09.901Z,13.93
2019-03-31T10:08:31.407Z,14.03
2019-03-31T10:11:21.119Z,13.93
2019-03-31T10:14:11.056Z,13.43
2019-03-31T10:17:11.949Z,15.93
2019-03-31T10:19:43.944Z,15.40
2019-03-31T10:22:33.676Z,14.70
2019-03-31T10:25:23.688Z,16.27
2019-03-31T10:27:54.982Z,15.47
2019-03-31T10:30:53.880Z,16.80
2019-03-31T10:33:43.617Z,15.40
2019-03-31T10:36:14.675Z,16.13
2019-03-31T10:39:25.009Z,16.13
2019-03-31T10:42:15.246Z,16.57
2019-03-31T10:44:46.486Z,15.00
2019-03-31T10:47:19.828Z,15.93
2019-03-31T10:49:51.080Z,15.90
2019-03-31T10:52:22.245Z,16.60
2019-03-31T10:55:35.013Z,15.80
2019-03-31T10:58:16.626Z,15.03
2019-03-31T11:01:04.053Z,15.80
2019-03-31T11:03:35.298Z,15.03
2019-03-31T11:06:06.331Z,14.97
2019-03-31T11:08:37.411Z,14.93
2019-03-31T11:11:27.748Z,15.73
2019-03-31T11:14:17.463Z,15.30
2019-03-31T11:16:48.937Z,14.60
2019-03-31T11:19:24.212Z,13.83
2019-03-31T11:24:55.864Z,14.37
2019-03-31T11:28:04.275Z,14.70
2019-03-31T11:30:45.693Z,13.30
2019-03-31T11:33:16.837Z,14.03
2019-03-31T11:35:47.840Z,12.90
2019-03-31T11:38:19.208Z,12.80
2019-03-31T11:41:08.952Z,12.50
2019-03-31T11:43:42.501Z,11.63
2019-03-31T11:46:14.604Z,10.87
2019-03-31T11:49:04.600Z,11.53
2019-03-31T11:51:54.356Z,12.77
2019-03-31T11:55:04.662Z,9.70
2019-03-31T11:57:35.912Z,8.07
2019-03-31T12:00:29.571Z,8.73
2019-03-31T12:03:07.101Z,9.13
2019-03-31T12:05:38.455Z,7.80
2019-03-31T12:08:09.583Z,6.50
2019-03-31T12:10:59.366Z,6.47
2019-03-31T12:13:49.228Z,8.03
2019-03-31T12:17:00.542Z,8.37
2019-03-31T12:19:31.627Z,7.77
2019-03-31T12:22:21.345Z,7.17
2019-03-31T12:24:52.387Z,7.00
2019-03-31T12:27:23.940Z,7.07
2019-03-31T12:30:13.753Z,6.63
2019-03-31T12:32:45.033Z,5.97
2019-03-31T12:35:18.534Z,5.70
2019-03-31T12:38:08.278Z,5.77
2019-03-31T12:40:40.880Z,6.67
2019-03-31T12:43:30.606Z,7.80
2019-03-31T12:46:01.694Z,7.00
2019-03-31T12:48:32.750Z,8.07
2019-03-31T12:51:22.499Z,7.23
2019-03-31T12:54:12.177Z,6.70
2019-03-31T12:56:43.216Z,7.30
2019-03-31T12:59:34.548Z,7.33
2019-03-31T13:02:05.890Z,7.47
2019-03-31T13:04:37.313Z,7.33
2019-03-31T13:07:08.834Z,7.37
2019-03-31T13:09:41.279Z,7.33
2019-03-31T13:12:30.943Z,7.60
2019-03-31T13:18:02.975Z,8.07
2019-03-31T13:20:36.637Z,7.73
2019-03-31T13:23:08.631Z,7.27
2019-03-31T13:28:49.087Z,7.37
2019-03-31T13:31:20.564Z,7.37
2019-03-31T13:33:52.043Z,7.00
2019-03-31T13:36:42.214Z,7.13
2019-03-31T13:39:13.299Z,6.77
2019-03-31T13:41:47.159Z,6.33
2019-03-31T13:44:36.156Z,5.50
2019-03-31T13:47:26.009Z,5.87
2019-03-31T13:49:57.071Z,5.90
2019-03-31T13:55:19.949Z,5.80
2019-03-31T13:57:52.627Z,4.60
2019-03-31T14:00:43.137Z,4.87
2019-03-31T14:03:41.021Z,4.30
2019-03-31T14:06:14.235Z,4.87
2019-03-31T14:09:06.248Z,5.10
2019-03-31T14:11:38.311Z,4.77
2019-03-31T14:14:11.603Z,5.03
2019-03-31T14:16:42.649Z,5.17
2019-03-31T14:19:32.766Z,4.50
2019-03-31T14:22:03.837Z,4.67
2019-03-31T14:24:34.995Z,4.37
2019-03-31T14:27:24.661Z,4.60
2019-03-31T14:29:55.753Z,4.27
2019-03-31T14:32:26.996Z,4.20
2019-03-31T14:35:16.845Z,4.13
2019-03-31T14:38:06.673Z,3.93
2019-03-31T14:40:37.991Z,3.77
2019-03-31T14:43:17.996Z,4.33
2019-03-31T14:46:10.444Z,4.20
2019-03-31T14:48:41.500Z,4.60
2019-03-31T14:51:31.751Z,5.00
2019-03-31T14:54:21.539Z,4.83
2019-03-31T14:57:11.186Z,4.23
2019-03-31T14:59:42.215Z,3.60
2019-03-31T15:02:32.414Z,4.83
2019-03-31T15:05:03.411Z,3.77
2019-03-31T15:07:53.555Z,4.10
2019-03-31T15:10:24.589Z,4.30
2019-03-31T15:12:55.804Z,4.10
2019-03-31T15:15:46.245Z,3.33
2019-03-31T15:18:36.752Z,3.40
2019-03-31T15:21:09.266Z,3.67
2019-03-31T15:23:55.698Z,3.30
2019-03-31T15:26:48.410Z,3.77
2019-03-31T15:29:19.629Z,3.53
2019-03-31T15:32:10.561Z,3.40
2019-03-31T15:35:00.778Z,3.23
2019-03-31T15:37:31.918Z,3.73
2019-03-31T15:40:03.227Z,3.20
2019-03-31T15:42:37.559Z,3.23
2019-03-31T15:45:09.966Z,3.43
2019-03-31T15:48:00.263Z,3.40
2019-03-31T15:50:31.505Z,3.33
2019-03-31T15:53:03.030Z,3.53
2019-03-31T15:55:34.999Z,3.47
2019-03-31T15:58:07.014Z,3.30
2019-03-31T16:00:57.042Z,3.17
2019-03-31T16:03:28.227Z,3.30
2019-03-31T16:06:18.287Z,4.30
2019-03-31T16:09:22.311Z,3.17
2019-03-31T16:12:00.228Z,3.03
2019-03-31T16:14:31.175Z,3.43
2019-03-31T16:17:24.271Z,3.30
2019-03-31T16:20:00.365Z,3.17
2019-03-31T16:22:47.896Z,3.37
2019-03-31T16:25:14.572Z,4.00
2019-03-31T16:27:46.175Z,3.83
2019-03-31T16:30:19.665Z,3.23
2019-03-31T16:33:09.123Z,4.10
2019-03-31T16:35:39.902Z,3.40
2019-03-31T16:38:35.659Z,3.40
2019-03-31T16:41:06.197Z,4.80
2019-03-31T16:46:50.009Z,3.70
2019-03-31T16:49:21.008Z,3.37
2019-03-31T16:52:10.547Z,3.33
2019-03-31T16:54:41.793Z,3.13
2019-03-31T16:57:31.739Z,3.47
2019-03-31T17:00:03.546Z,3.23
2019-03-31T17:05:42.675Z,3.40
2019-03-31T17:08:32.936Z,3.40
2019-03-31T17:11:27.915Z,5.27
2019-03-31T17:14:17.620Z,3.93
2019-03-31T17:17:07.056Z,3.47
2019-03-31T17:19:56.591Z,3.10
2019-03-31T17:22:27.527Z,3.60
2019-03-31T17:24:58.012Z,3.13
2019-03-31T17:27:47.417Z,3.20
2019-03-31T17:30:18.638Z,4.83
2019-03-31T17:33:08.061Z,3.77
2019-03-31T17:35:38.622Z,3.20
2019-03-31T17:38:09.493Z,4.00
2019-03-31T17:40:41.259Z,3.40
2019-03-31T17:43:23.832Z,3.87
2019-03-31T17:46:05.444Z,3.67
2019-03-31T17:48:37.272Z,5.47
2019-03-31T17:54:19.852Z,3.77
2019-03-31T17:57:22.511Z,3.93
2019-03-31T17:59:41.657Z,4.70
2019-03-31T18:02:12.984Z,4.33
2019-03-31T18:05:02.661Z,3.93
2019-03-31T18:07:52.718Z,4.10
2019-03-31T18:10:42.214Z,4.43
2019-03-31T18:13:12.998Z,4.17
2019-03-31T18:15:57.421Z,4.87
2019-03-31T18:21:22.435Z,4.37
2019-03-31T18:29:23.272Z,3.60
2019-03-31T18:32:12.757Z,3.70
2019-03-31T18:35:02.771Z,3.93
2019-03-31T18:37:33.981Z,4.47
2019-03-31T18:40:07.243Z,4.67
2019-03-31T18:42:56.719Z,4.30
2019-03-31T18:45:47.389Z,4.67
2019-03-31T18:48:38.669Z,4.63
2019-03-31T18:51:28.237Z,4.80
2019-03-31T18:54:36.626Z,4.57
2019-03-31T18:57:46.294Z,4.30
2019-03-31T19:00:36.366Z,5.23
2019-03-31T19:03:27.789Z,4.33
2019-03-31T19:06:36.141Z,4.60
2019-03-31T19:09:35.025Z,3.70
2019-03-31T19:12:24.846Z,3.60
2019-03-31T19:15:15.097Z,4.43
2019-03-31T19:18:07.982Z,3.53
2019-03-31T19:21:10.536Z,4.30
2019-03-31T19:26:48.548Z,4.83
2019-03-31T19:29:53.700Z,5.00
2019-03-31T19:32:58.320Z,5.23
2019-03-31T19:35:51.516Z,5.20
2019-03-31T19:38:29.840Z,4.67
2019-03-31T19:41:38.148Z,4.90
2019-03-31T19:44:33.435Z,5.07
2019-03-31T19:47:12.672Z,5.50
2019-03-31T19:50:02.315Z,5.17
2019-03-31T19:53:15.133Z,5.17
2019-03-31T19:56:24.151Z,5.27
2019-03-31T19:59:16.274Z,5.17
2019-03-31T20:02:07.499Z,5.87
2019-03-31T20:04:57.445Z,5.87
2019-03-31T20:08:06.044Z,5.63
2019-03-31T20:11:09.418Z,6.27
2019-03-31T20:14:18.132Z,5.97
2019-03-31T20:17:22.515Z,5.40
2019-03-31T20:26:09.682Z,5.43
2019-03-31T20:31:52.579Z,5.90
2019-03-31T20:34:35.985Z,6.30
2019-03-31T20:37:26.793Z,6.30
2019-03-31T20:40:35.326Z,5.90
2019-03-31T20:43:24.791Z,5.37
2019-03-31T20:45:56.507Z,5.53
2019-03-31T20:48:27.077Z,5.87
2019-03-31T20:50:58.275Z,5.83
2019-03-31T20:53:28.874Z,6.50
2019-03-31T20:56:01.560Z,6.10
2019-03-31T20:58:51.403Z,7.80
2019-03-31T21:01:40.832Z,6.97
2019-03-31T21:04:30.556Z,6.60
2019-03-31T21:07:20.001Z,6.97
2019-03-31T21:09:51.495Z,6.47
2019-03-31T21:12:33.353Z,6.40
2019-03-31T21:15:14.966Z,5.83
2019-03-31T21:17:55.875Z,6.27
2019-03-31T21:20:41.153Z,8.63
2019-03-31T21:23:20.498Z,8.73
2019-03-31T21:26:14.511Z,8.43
2019-03-31T21:28:47.031Z,7.33
2019-03-31T21:31:39.299Z,6.77
2019-03-31T21:37:25.507Z,7.73
2019-03-31T21:40:15.483Z,8.03
2019-03-31T21:42:46.659Z,8.20
2019-03-31T21:45:18.294Z,8.90
2019-03-31T21:50:28.141Z,9.70
2019-03-31T21:52:59.890Z,9.70
2019-03-31T21:55:50.075Z,10.43
2019-03-31T21:58:40.949Z,11.13
2019-03-31T22:01:16.017Z,8.97
2019-03-31T22:07:08.627Z,10.97
2019-03-31T22:12:53.715Z,10.83
2019-03-31T22:15:43.410Z,10.27
2019-03-31T22:18:53.055Z,10.67
2019-03-31T22:21:45.763Z,13.97
2019-03-31T22:24:35.826Z,11.70
2019-03-31T22:27:06.873Z,10.87
2019-03-31T22:29:56.790Z,12.30
2019-03-31T22:32:38.959Z,11.33
2019-03-31T22:35:20.653Z,11.77
2019-03-31T22:41:10.545Z,13.73
2019-03-31T22:44:00.684Z,13.30
2019-03-31T22:46:54.540Z,13.20
2019-03-31T22:49:26.628Z,13.57
2019-03-31T22:52:00.895Z,15.73
2019-03-31T22:54:52.064Z,16.17
2019-03-31T22:57:42.319Z,15.00
2019-03-31T23:00:32.034Z,16.43
2019-03-31T23:03:21.615Z,13.43
2019-03-31T23:06:11.323Z,11.50
2019-03-31T23:09:00.936Z,13.10
2019-03-31T23:11:31.475Z,15.60
2019-03-31T23:14:14.218Z,16.70
2019-03-31T23:16:44.726Z,17.10
2019-03-31T23:19:15.387Z,17.07
2019-03-31T23:21:55.810Z,18.77
2019-03-31T23:24:45.566Z,20.03
2019-03-31T23:27:16.035Z,21.00
2019-03-31T23:30:07.818Z,19.67
2019-03-31T23:32:57.593Z,21.07
2019-03-31T23:35:54.352Z,19.70
2019-03-31T23:38:44.094Z,22.97
2019-03-31T23:41:14.689Z,22.83
2019-03-31T23:44:04.950Z,25.07
2019-03-31T23:46:35.597Z,24.97
2019-03-31T23:49:25.398Z,26.30
2019-03-31T23:52:15.333Z,30.60
2019-03-31T23:55:08.586Z,30.70
2019-03-31T23:57:40.241Z,29.40
